^^
Station Historical Data
Daily Summary for November 1, 2017 Units:  Both    English   Metric
« Previous Day
Next Day »
Daily Weekly Monthly Yearly Custom
  High: Low: Average:
Temperature: TemperatureF °F /  -17.8 °C 56.8 °F /  13.8 °C 64.8 °F /  18.2 °C
Dew Point: DewpointF °F /  -17.8 °C 52.2 °F /  11.2 °C 54.4 °F /  12.4 °C
Humidity: Humidity% 46% 70%
Wind Speed: WindSpeedMPHmph /  0km/h - 2.8mph /  4.5km/h
Wind Gust: WindSpeedGustMPHmph /  0km/h - -
Wind- - SSE
Pressure: PressureIn in /  0 hPa 29.86 in /  1011.1 hPa -
Precipitation: 0.00 in /  0 mm    
Historical Graphs
 
 
Tabular Data for November 1, 2017
Time Temperature Dew Point Pressure Wind Wind Speed Wind Gust Humidity Rainfall Rate (Hourly) solar Conditions
TemperatureF °F /  -17.8 °C DewpointF °F /  -17.8 °C PressureInin /  0hPa Calm     Humidity% HourlyPrecipInin /  0mm SolarRadiationWatts/m^2 W/m2 Conditions
00:02 57.9 °F /  14.4 °C 55.0 °F /  12.8 °C 30.36in /  1028hPa East 0.9mph /  1.4km/h 10.0mph /  16.1km/h 90% 0.01in /  0.25mm 0.0 W/m2
00:08 57.9 °F /  14.4 °C 55.2 °F /  12.9 °C 30.36in /  1028hPa ENE 2.0mph /  3.2km/h 8.0mph /  12.9km/h 91% 0.01in /  0.25mm 0.0 W/m2
00:13 57.9 °F /  14.4 °C 55.2 °F /  12.9 °C 30.36in /  1028hPa East 4.9mph /  7.9km/h 8.0mph /  12.9km/h 91% 0.00in /  0mm 0.0 W/m2
00:18 57.9 °F /  14.4 °C 55.2 °F /  12.9 °C 30.36in /  1028hPa ENE 0.9mph /  1.4km/h 10.0mph /  16.1km/h 91% 0.00in /  0mm 0.0 W/m2
00:24 57.9 °F /  14.4 °C 55.2 °F /  12.9 °C 30.36in /  1028hPa East 6.0mph /  9.7km/h 10.0mph /  16.1km/h 91% 0.00in /  0mm 0.0 W/m2
00:29 57.9 °F /  14.4 °C 55.2 °F /  12.9 °C 30.35in /  1027.7hPa NE 2.0mph /  3.2km/h 13.0mph /  20.9km/h 91% 0.00in /  0mm 0.0 W/m2
00:34 57.7 °F /  14.3 °C 55.2 °F /  12.9 °C 30.35in /  1027.7hPa NE 2.9mph /  4.7km/h 7.0mph /  11.3km/h 91% 0.00in /  0mm 0.0 W/m2
00:39 57.6 °F /  14.2 °C 55.0 °F /  12.8 °C 30.35in /  1027.7hPa ENE 4.9mph /  7.9km/h 9.0mph /  14.5km/h 91% 0.00in /  0mm 0.0 W/m2
00:44 57.6 °F /  14.2 °C 54.7 °F /  12.6 °C 30.34in /  1027.3hPa Calm   9.0mph /  14.5km/h 90% 0.00in /  0mm 0.0 W/m2
00:49 57.6 °F /  14.2 °C 55.0 °F /  12.8 °C 30.34in /  1027.3hPa SE 0.9mph /  1.4km/h 8.0mph /  12.9km/h 91% 0.00in /  0mm 0.0 W/m2
00:54 57.6 °F /  14.2 °C 55.0 °F /  12.8 °C 30.34in /  1027.3hPa East 6.0mph /  9.7km/h 11.0mph /  17.7km/h 91% 0.00in /  0mm 0.0 W/m2
00:59 57.4 °F /  14.1 °C 54.9 °F /  12.7 °C 30.33in /  1027hPa NE 2.0mph /  3.2km/h 10.0mph /  16.1km/h 91% 0.00in /  0mm 0.0 W/m2
01:04 57.4 °F /  14.1 °C 54.5 °F /  12.5 °C 30.33in /  1027hPa ESE 2.9mph /  4.7km/h 10.0mph /  16.1km/h 90% 0.00in /  0mm 0.0 W/m2
01:09 57.4 °F /  14.1 °C 54.5 °F /  12.5 °C 30.34in /  1027.3hPa North 4.9mph /  7.9km/h 12.0mph /  19.3km/h 90% 0.00in /  0mm 0.0 W/m2
01:14 57.4 °F /  14.1 °C 54.5 °F /  12.5 °C 30.33in /  1027hPa ESE 2.0mph /  3.2km/h 8.0mph /  12.9km/h 90% 0.00in /  0mm 0.0 W/m2
01:20 57.2 °F /  14 °C 54.3 °F /  12.4 °C 30.34in /  1027.3hPa ESE 4.9mph /  7.9km/h 8.0mph /  12.9km/h 90% 0.00in /  0mm 0.0 W/m2
01:25 57.2 °F /  14 °C 54.3 °F /  12.4 °C 30.34in /  1027.3hPa NE 2.9mph /  4.7km/h 10.0mph /  16.1km/h 90% 0.00in /  0mm 0.0 W/m2
01:29 57.0 °F /  13.9 °C 54.1 °F /  12.3 °C 30.34in /  1027.3hPa ENE 6.9mph /  11.1km/h 10.0mph /  16.1km/h 90% 0.00in /  0mm 0.0 W/m2
01:34 57.0 °F /  13.9 °C 54.1 °F /  12.3 °C 30.34in /  1027.3hPa NE 2.9mph /  4.7km/h 8.0mph /  12.9km/h 90% 0.00in /  0mm 0.0 W/m2
01:39 57.0 °F /  13.9 °C 54.5 °F /  12.5 °C 30.34in /  1027.3hPa ENE 4.9mph /  7.9km/h 7.0mph /  11.3km/h 91% 0.00in /  0mm 0.0 W/m2
01:44 57.0 °F /  13.9 °C 54.5 °F /  12.5 °C 30.34in /  1027.3hPa East 6.0mph /  9.7km/h 9.0mph /  14.5km/h 91% 0.00in /  0mm 0.0 W/m2
01:49 57.0 °F /  13.9 °C 54.5 °F /  12.5 °C 30.34in /  1027.3hPa ENE 8.1mph /  13km/h 11.0mph /  17.7km/h 91% 0.00in /  0mm 0.0 W/m2
01:54 57.0 °F /  13.9 °C 54.5 °F /  12.5 °C 30.33in /  1027hPa ENE 4.0mph /  6.4km/h 5.0mph /  8km/h 91% 0.00in /  0mm 0.0 W/m2
01:59 57.0 °F /  13.9 °C 54.5 °F /  12.5 °C 30.33in /  1027hPa NE 0.9mph /  1.4km/h 8.0mph /  12.9km/h 91% 0.00in /  0mm 0.0 W/m2
02:04 57.0 °F /  13.9 °C 54.5 °F /  12.5 °C 30.33in /  1027hPa NE 4.0mph /  6.4km/h 4.0mph /  6.4km/h 91% 0.00in /  0mm 0.0 W/m2
02:10 57.0 °F /  13.9 °C 54.5 °F /  12.5 °C 30.33in /  1027hPa NE 0.9mph /  1.4km/h 7.0mph /  11.3km/h 91% 0.00in /  0mm 0.0 W/m2
02:15 57.0 °F /  13.9 °C 54.5 °F /  12.5 °C 30.32in /  1026.6hPa ENE 4.0mph /  6.4km/h 10.0mph /  16.1km/h 91% 0.00in /  0mm 0.0 W/m2
02:20 57.0 °F /  13.9 °C 54.5 °F /  12.5 °C 30.32in /  1026.6hPa NE 4.9mph /  7.9km/h 7.0mph /  11.3km/h 91% 0.00in /  0mm 0.0 W/m2
02:25 57.0 °F /  13.9 °C 54.5 °F /  12.5 °C 30.32in /  1026.6hPa Calm   11.0mph /  17.7km/h 91% 0.00in /  0mm 0.0 W/m2
02:27 57.0 °F /  13.9 °C 54.5 °F /  12.5 °C 30.32in /  1026.6hPa ENE 4.9mph /  7.9km/h 7.0mph /  11.3km/h 91% 0.00in /  0mm 0.0 W/m2
02:32 57.0 °F /  13.9 °C 54.5 °F /  12.5 °C 30.32in /  1026.6hPa East 4.0mph /  6.4km/h 9.0mph /  14.5km/h 91% 0.00in /  0mm 0.0 W/m2
02:37 57.0 °F /  13.9 °C 54.5 °F /  12.5 °C 30.32in /  1026.6hPa ESE 2.0mph /  3.2km/h 8.0mph /  12.9km/h 91% 0.00in /  0mm 0.0 W/m2
02:42 57.0 °F /  13.9 °C 54.5 °F /  12.5 °C 30.32in /  1026.6hPa NE 4.0mph /  6.4km/h 5.0mph /  8km/h 91% 0.00in /  0mm 0.0 W/m2
02:47 57.0 °F /  13.9 °C 54.1 °F /  12.3 °C 30.32in /  1026.6hPa NE 2.9mph /  4.7km/h 6.0mph /  9.7km/h 90% 0.00in /  0mm 0.0 W/m2
02:52 57.0 °F /  13.9 °C 54.1 °F /  12.3 °C 30.32in /  1026.6hPa East 0.9mph /  1.4km/h 6.0mph /  9.7km/h 90% 0.00in /  0mm 0.0 W/m2
02:57 57.0 °F /  13.9 °C 54.1 °F /  12.3 °C 30.31in /  1026.3hPa ENE 2.0mph /  3.2km/h 6.0mph /  9.7km/h 90% 0.00in /  0mm 0.0 W/m2
03:03 57.0 °F /  13.9 °C 54.1 °F /  12.3 °C 30.31in /  1026.3hPa North 0.9mph /  1.4km/h 5.0mph /  8km/h 90% 0.00in /  0mm 0.0 W/m2
03:08 57.0 °F /  13.9 °C 54.1 °F /  12.3 °C 30.31in /  1026.3hPa ENE 0.9mph /  1.4km/h 7.0mph /  11.3km/h 90% 0.00in /  0mm 0.0 W/m2
03:13 57.0 °F /  13.9 °C 54.1 °F /  12.3 °C 30.31in /  1026.3hPa ENE 0.9mph /  1.4km/h 8.0mph /  12.9km/h 90% 0.00in /  0mm 0.0 W/m2
03:18 56.8 °F /  13.8 °C 54.0 °F /  12.2 °C 30.31in /  1026.3hPa NE 0.9mph /  1.4km/h 9.0mph /  14.5km/h 90% 0.00in /  0mm 0.0 W/m2
03:23 56.8 °F /  13.8 °C 53.6 °F /  12 °C 30.31in /  1026.3hPa NE 0.9mph /  1.4km/h 8.0mph /  12.9km/h 89% 0.00in /  0mm 0.0 W/m2
03:28 56.8 °F /  13.8 °C 53.6 °F /  12 °C 30.30in /  1026hPa SE 0.9mph /  1.4km/h 8.0mph /  12.9km/h 89% 0.00in /  0mm 0.0 W/m2
03:33 56.8 °F /  13.8 °C 53.6 °F /  12 °C 30.30in /  1026hPa ESE 2.0mph /  3.2km/h 7.0mph /  11.3km/h 89% 0.00in /  0mm 0.0 W/m2
03:38 56.8 °F /  13.8 °C 53.2 °F /  11.8 °C 30.30in /  1026hPa East 2.0mph /  3.2km/h 6.0mph /  9.7km/h 88% 0.00in /  0mm 0.0 W/m2
03:43 57.0 °F /  13.9 °C 53.4 °F /  11.9 °C 30.30in /  1026hPa NE 4.9mph /  7.9km/h 10.0mph /  16.1km/h 88% 0.00in /  0mm 0.0 W/m2
03:48 57.0 °F /  13.9 °C 53.2 °F /  11.8 °C 30.30in /  1026hPa East 2.9mph /  4.7km/h 7.0mph /  11.3km/h 87% 0.00in /  0mm 0.0 W/m2
03:53 57.0 °F /  13.9 °C 53.2 °F /  11.8 °C 30.30in /  1026hPa NE 4.9mph /  7.9km/h 9.0mph /  14.5km/h 87% 0.00in /  0mm 0.0 W/m2
03:59 57.2 °F /  14 °C 53.4 °F /  11.9 °C 30.30in /  1026hPa ENE 4.9mph /  7.9km/h 5.0mph /  8km/h 87% 0.00in /  0mm 0.0 W/m2
04:04 57.2 °F /  14 °C 53.1 °F /  11.7 °C 30.30in /  1026hPa ESE 4.9mph /  7.9km/h 9.0mph /  14.5km/h 86% 0.00in /  0mm 0.0 W/m2
04:09 57.4 °F /  14.1 °C 53.6 °F /  12 °C 30.31in /  1026.3hPa NE 4.9mph /  7.9km/h 6.0mph /  9.7km/h 87% 0.00in /  0mm 0.0 W/m2
04:14 57.4 °F /  14.1 °C 53.2 °F /  11.8 °C 30.30in /  1026hPa Calm   5.0mph /  8km/h 86% 0.00in /  0mm 0.0 W/m2
04:20 57.4 °F /  14.1 °C 53.2 °F /  11.8 °C 30.30in /  1026hPa East 0.9mph /  1.4km/h 4.0mph /  6.4km/h 86% 0.00in /  0mm 0.0 W/m2
04:25 57.2 °F /  14 °C 53.4 °F /  11.9 °C 30.31in /  1026.3hPa Calm   7.0mph /  11.3km/h 87% 0.00in /  0mm 0.0 W/m2
04:30 57.2 °F /  14 °C 53.1 °F /  11.7 °C 29.91in /  1012.8hPa ESE 2.9mph /  4.7km/h 7.0mph /  11.3km/h 86% 0.00in /  0mm 0.0 W/m2
04:35 57.4 °F /  14.1 °C 53.2 °F /  11.8 °C 29.91in /  1012.8hPa ESE 4.0mph /  6.4km/h 9.0mph /  14.5km/h 86% 0.00in /  0mm 0.0 W/m2
04:40 57.4 °F /  14.1 °C 53.2 °F /  11.8 °C 29.91in /  1012.8hPa East 4.0mph /  6.4km/h 8.0mph /  12.9km/h 86% 0.00in /  0mm 0.0 W/m2
04:46 57.4 °F /  14.1 °C 52.9 °F /  11.6 °C 29.91in /  1012.8hPa NE 4.9mph /  7.9km/h 7.0mph /  11.3km/h 85% 0.00in /  0mm 0.0 W/m2
04:51 57.6 °F /  14.2 °C 53.1 °F /  11.7 °C 29.91in /  1012.8hPa SE 4.0mph /  6.4km/h 6.0mph /  9.7km/h 85% 0.00in /  0mm 0.0 W/m2
04:56 57.6 °F /  14.2 °C 53.1 °F /  11.7 °C 29.91in /  1012.8hPa ENE 2.9mph /  4.7km/h 8.0mph /  12.9km/h 85% 0.00in /  0mm 0.0 W/m2
05:01 57.6 °F /  14.2 °C 52.7 °F /  11.5 °C 29.91in /  1012.8hPa East 2.9mph /  4.7km/h 9.0mph /  14.5km/h 84% 0.00in /  0mm 0.0 W/m2
05:06 57.7 °F /  14.3 °C 52.9 °F /  11.6 °C 29.91in /  1012.8hPa ENE 12.1mph /  19.5km/h 12.1mph /  19.5km/h 84% 0.00in /  0mm 0.0 W/m2
05:13 57.9 °F /  14.4 °C 53.1 °F /  11.7 °C 29.91in /  1012.8hPa ESE 2.9mph /  4.7km/h 13.0mph /  20.9km/h 84% 0.00in /  0mm 0.0 W/m2
05:21 57.9 °F /  14.4 °C 53.1 °F /  11.7 °C 29.92in /  1013.1hPa NE 4.0mph /  6.4km/h 10.0mph /  16.1km/h 84% 0.00in /  0mm 0.0 W/m2
05:27 57.9 °F /  14.4 °C 53.1 °F /  11.7 °C 29.92in /  1013.1hPa ENE 2.9mph /  4.7km/h 11.0mph /  17.7km/h 84% 0.00in /  0mm 0.0 W/m2
05:32 57.9 °F /  14.4 °C 52.7 °F /  11.5 °C 29.91in /  1012.8hPa ENE 4.9mph /  7.9km/h 8.0mph /  12.9km/h 83% 0.00in /  0mm 0.0 W/m2
05:34 57.9 °F /  14.4 °C 53.1 °F /  11.7 °C 29.91in /  1012.8hPa ENE 2.9mph /  4.7km/h 10.0mph /  16.1km/h 84% 0.00in /  0mm 0.0 W/m2
05:39 58.1 °F /  14.5 °C 53.2 °F /  11.8 °C 29.91in /  1012.8hPa NE 6.9mph /  11.1km/h 8.0mph /  12.9km/h 84% 0.00in /  0mm 0.0 W/m2
05:44 58.1 °F /  14.5 °C 52.9 °F /  11.6 °C 29.91in /  1012.8hPa SE 2.9mph /  4.7km/h 8.0mph /  12.9km/h 83% 0.00in /  0mm 0.0 W/m2
05:49 58.3 °F /  14.6 °C 53.1 °F /  11.7 °C 29.91in /  1012.8hPa East 4.0mph /  6.4km/h 13.0mph /  20.9km/h 83% 0.00in /  0mm 0.0 W/m2
05:54 58.3 °F /  14.6 °C 52.9 °F /  11.6 °C 29.91in /  1012.8hPa North 0.9mph /  1.4km/h 10.0mph /  16.1km/h 82% 0.00in /  0mm 0.0 W/m2
05:56 58.5 °F /  14.7 °C 53.1 °F /  11.7 °C 29.91in /  1012.8hPa ENE 4.9mph /  7.9km/h 7.0mph /  11.3km/h 82% 0.00in /  0mm 0.0 W/m2
06:01 58.5 °F /  14.7 °C 53.1 °F /  11.7 °C 29.91in /  1012.8hPa ESE 6.9mph /  11.1km/h 9.0mph /  14.5km/h 82% 0.00in /  0mm 0.0 W/m2
06:06 58.5 °F /  14.7 °C 52.3 °F /  11.3 °C 29.91in /  1012.8hPa ENE 2.0mph /  3.2km/h 12.0mph /  19.3km/h 80% 0.00in /  0mm 0.0 W/m2
06:12 58.6 °F /  14.8 °C 52.5 °F /  11.4 °C 29.91in /  1012.8hPa ENE 2.9mph /  4.7km/h 13.0mph /  20.9km/h 80% 0.00in /  0mm 0.0 W/m2
06:17 58.8 °F /  14.9 °C 52.3 °F /  11.3 °C 29.91in /  1012.8hPa East 0.9mph /  1.4km/h 8.0mph /  12.9km/h 79% 0.00in /  0mm 0.0 W/m2
06:22 59.0 °F /  15 °C 52.2 °F /  11.2 °C 29.91in /  1012.8hPa East 4.0mph /  6.4km/h 10.0mph /  16.1km/h 78% 0.00in /  0mm 9.0 W/m2
06:28 59.2 °F /  15.1 °C 52.7 °F /  11.5 °C 29.91in /  1012.8hPa East 2.9mph /  4.7km/h 5.0mph /  8km/h 79% 0.00in /  0mm 16.0 W/m2
06:33 59.2 °F /  15.1 °C 52.3 °F /  11.3 °C 29.91in /  1012.8hPa NE 0.9mph /  1.4km/h 8.0mph /  12.9km/h 78% 0.00in /  0mm 23.0 W/m2
06:38 59.2 °F /  15.1 °C 52.7 °F /  11.5 °C 29.91in /  1012.8hPa NE 4.0mph /  6.4km/h 7.0mph /  11.3km/h 79% 0.00in /  0mm 25.0 W/m2
06:43 59.2 °F /  15.1 °C 52.7 °F /  11.5 °C 29.91in /  1012.8hPa SE 0.9mph /  1.4km/h 10.0mph /  16.1km/h 79% 0.00in /  0mm 26.0 W/m2
06:48 59.2 °F /  15.1 °C 52.7 °F /  11.5 °C 29.91in /  1012.8hPa ENE 4.9mph /  7.9km/h 10.0mph /  16.1km/h 79% 0.00in /  0mm 32.0 W/m2
06:53 59.2 °F /  15.1 °C 52.7 °F /  11.5 °C 29.91in /  1012.8hPa NE 2.9mph /  4.7km/h 9.0mph /  14.5km/h 79% 0.00in /  0mm 54.0 W/m2
06:58 59.2 °F /  15.1 °C 52.7 °F /  11.5 °C 29.91in /  1012.8hPa NE 6.9mph /  11.1km/h 7.0mph /  11.3km/h 79% 0.00in /  0mm 72.0 W/m2
07:04 59.4 °F /  15.2 °C 52.9 °F /  11.6 °C 29.91in /  1012.8hPa NE 6.0mph /  9.7km/h 11.0mph /  17.7km/h 79% 0.00in /  0mm 84.0 W/m2
07:09 59.4 °F /  15.2 °C 52.9 °F /  11.6 °C 29.92in /  1013.1hPa NNE 4.0mph /  6.4km/h 10.0mph /  16.1km/h 79% 0.00in /  0mm 91.0 W/m2
07:14 59.7 °F /  15.4 °C 52.9 °F /  11.6 °C 29.92in /  1013.1hPa East 4.0mph /  6.4km/h 8.0mph /  12.9km/h 78% 0.00in /  0mm 95.0 W/m2
07:19 60.1 °F /  15.6 °C 53.2 °F /  11.8 °C 29.92in /  1013.1hPa NE 4.0mph /  6.4km/h 9.0mph /  14.5km/h 78% 0.00in /  0mm 93.0 W/m2
07:24 60.3 °F /  15.7 °C 53.1 °F /  11.7 °C 29.92in /  1013.1hPa North 4.0mph /  6.4km/h 8.0mph /  12.9km/h 77% 0.00in /  0mm 88.0 W/m2
07:29 60.4 °F /  15.8 °C 53.2 °F /  11.8 °C 29.93in /  1013.4hPa North 2.0mph /  3.2km/h 7.0mph /  11.3km/h 77% 0.00in /  0mm 88.0 W/m2
07:34 60.4 °F /  15.8 °C 53.2 °F /  11.8 °C 29.93in /  1013.4hPa NNE 4.9mph /  7.9km/h 12.0mph /  19.3km/h 77% 0.00in /  0mm 100.0 W/m2
07:39 60.6 °F /  15.9 °C 53.1 °F /  11.7 °C 29.93in /  1013.4hPa NE 6.9mph /  11.1km/h 9.0mph /  14.5km/h 76% 0.00in /  0mm 120.0 W/m2
07:44 61.0 °F /  16.1 °C 53.4 °F /  11.9 °C 29.93in /  1013.4hPa NE 4.0mph /  6.4km/h 7.0mph /  11.3km/h 76% 0.00in /  0mm 148.0 W/m2
07:49 61.2 °F /  16.2 °C 53.6 °F /  12 °C 29.94in /  1013.8hPa SSE 2.9mph /  4.7km/h 9.0mph /  14.5km/h 76% 0.00in /  0mm 174.0 W/m2
07:55 61.3 °F /  16.3 °C 53.4 °F /  11.9 °C 29.94in /  1013.8hPa NE 4.0mph /  6.4km/h 8.0mph /  12.9km/h 75% 0.00in /  0mm 181.0 W/m2
08:00 61.9 °F /  16.6 °C 53.8 °F /  12.1 °C 29.95in /  1014.1hPa ENE 0.9mph /  1.4km/h 5.0mph /  8km/h 75% 0.00in /  0mm 174.0 W/m2
08:05 62.1 °F /  16.7 °C 53.6 °F /  12 °C 29.95in /  1014.1hPa North 6.9mph /  11.1km/h 8.0mph /  12.9km/h 74% 0.00in /  0mm 165.0 W/m2
08:10 62.2 °F /  16.8 °C 53.8 °F /  12.1 °C 29.95in /  1014.1hPa NNE 6.9mph /  11.1km/h 11.0mph /  17.7km/h 74% 0.00in /  0mm 171.0 W/m2
08:15 62.2 °F /  16.8 °C 53.8 °F /  12.1 °C 29.95in /  1014.1hPa NNE 2.9mph /  4.7km/h 8.0mph /  12.9km/h 74% 0.00in /  0mm 190.0 W/m2
08:20 62.2 °F /  16.8 °C 53.8 °F /  12.1 °C 29.95in /  1014.1hPa NE 4.9mph /  7.9km/h 9.0mph /  14.5km/h 74% 0.00in /  0mm 223.0 W/m2
08:25 62.4 °F /  16.9 °C 53.6 °F /  12 °C 29.95in /  1014.1hPa East 4.9mph /  7.9km/h 9.0mph /  14.5km/h 73% 0.00in /  0mm 237.0 W/m2
08:30 62.8 °F /  17.1 °C 54.0 °F /  12.2 °C 29.95in /  1014.1hPa ESE 6.0mph /  9.7km/h 9.0mph /  14.5km/h 73% 0.00in /  0mm 183.0 W/m2
08:35 62.8 °F /  17.1 °C 54.0 °F /  12.2 °C 29.94in /  1013.8hPa NE 4.9mph /  7.9km/h 8.0mph /  12.9km/h 73% 0.00in /  0mm 151.0 W/m2
08:40 62.8 °F /  17.1 °C 54.0 °F /  12.2 °C 29.94in /  1013.8hPa NE 6.0mph /  9.7km/h 8.0mph /  12.9km/h 73% 0.00in /  0mm 121.0 W/m2
08:46 62.8 °F /  17.1 °C 54.0 °F /  12.2 °C 29.95in /  1014.1hPa NNE 2.9mph /  4.7km/h 9.0mph /  14.5km/h 73% 0.00in /  0mm 98.0 W/m2
08:52 62.6 °F /  17 °C 53.8 °F /  12.1 °C 29.96in /  1014.4hPa North 6.0mph /  9.7km/h 9.0mph /  14.5km/h 73% 0.00in /  0mm 88.0 W/m2
08:57 62.4 °F /  16.9 °C 54.0 °F /  12.2 °C 29.96in /  1014.4hPa ENE 2.0mph /  3.2km/h 4.0mph /  6.4km/h 74% 0.00in /  0mm 90.0 W/m2
09:02 62.4 °F /  16.9 °C 54.0 °F /  12.2 °C 29.96in /  1014.4hPa Calm   2.0mph /  3.2km/h 74% 0.00in /  0mm 93.0 W/m2
09:07 62.6 °F /  17 °C 54.1 °F /  12.3 °C 29.96in /  1014.4hPa NNE 2.0mph /  3.2km/h 3.0mph /  4.8km/h 74% 0.00in /  0mm 105.0 W/m2
09:12 62.8 °F /  17.1 °C 54.0 °F /  12.2 °C 29.96in /  1014.4hPa NNW 4.9mph /  7.9km/h 6.0mph /  9.7km/h 73% 0.00in /  0mm 128.0 W/m2
09:17 63.0 °F /  17.2 °C 53.8 °F /  12.1 °C 29.96in /  1014.4hPa Calm   7.0mph /  11.3km/h 72% 0.00in /  0mm 141.0 W/m2
09:22 63.3 °F /  17.4 °C 54.1 °F /  12.3 °C 29.97in /  1014.8hPa Calm   2.0mph /  3.2km/h 72% 0.00in /  0mm 142.0 W/m2
09:27 63.5 °F /  17.5 °C 54.0 °F /  12.2 °C 29.97in /  1014.8hPa WNW 2.9mph /  4.7km/h 4.0mph /  6.4km/h 71% 0.00in /  0mm 142.0 W/m2
09:32 63.7 °F /  17.6 °C 54.5 °F /  12.5 °C 29.97in /  1014.8hPa North 0.9mph /  1.4km/h 4.0mph /  6.4km/h 72% 0.00in /  0mm 146.0 W/m2
09:37 63.7 °F /  17.6 °C 54.5 °F /  12.5 °C 29.97in /  1014.8hPa Calm   5.0mph /  8km/h 72% 0.00in /  0mm 144.0 W/m2
09:43 63.7 °F /  17.6 °C 54.9 °F /  12.7 °C 29.97in /  1014.8hPa Calm   5.0mph /  8km/h 73% 0.00in /  0mm 134.0 W/m2
09:48 63.3 °F /  17.4 °C 54.9 °F /  12.7 °C 29.98in /  1015.1hPa WNW 0.9mph /  1.4km/h 2.0mph /  3.2km/h 74% 0.00in /  0mm 123.0 W/m2
09:53 63.1 °F /  17.3 °C 55.0 °F /  12.8 °C 29.97in /  1014.8hPa NW 0.9mph /  1.4km/h 3.0mph /  4.8km/h 75% 0.00in /  0mm 116.0 W/m2
09:59 63.0 °F /  17.2 °C 54.9 °F /  12.7 °C 29.98in /  1015.1hPa Calm   3.0mph /  4.8km/h 75% 0.00in /  0mm 118.0 W/m2
10:04 63.0 °F /  17.2 °C 55.2 °F /  12.9 °C 29.98in /  1015.1hPa NW 6.0mph /  9.7km/h 7.0mph /  11.3km/h 76% 0.00in /  0mm 134.0 W/m2
10:09 62.8 °F /  17.1 °C 55.0 °F /  12.8 °C 29.98in /  1015.1hPa North 2.0mph /  3.2km/h 5.0mph /  8km/h 76% 0.00in /  0mm 149.0 W/m2
10:14 62.8 °F /  17.1 °C 55.0 °F /  12.8 °C 29.98in /  1015.1hPa NW 2.9mph /  4.7km/h 5.0mph /  8km/h 76% 0.00in /  0mm 153.0 W/m2
10:19 62.8 °F /  17.1 °C 55.4 °F /  13 °C 29.98in /  1015.1hPa West 0.9mph /  1.4km/h 3.0mph /  4.8km/h 77% 0.00in /  0mm 167.0 W/m2
10:25 62.8 °F /  17.1 °C 55.0 °F /  12.8 °C 29.98in /  1015.1hPa NNE 2.0mph /  3.2km/h 6.0mph /  9.7km/h 76% 0.00in /  0mm 195.0 W/m2
10:30 62.8 °F /  17.1 °C 55.0 °F /  12.8 °C 29.98in /  1015.1hPa North 2.0mph /  3.2km/h 4.0mph /  6.4km/h 76% 0.00in /  0mm 241.0 W/m2
10:35 63.0 °F /  17.2 °C 55.6 °F /  13.1 °C 29.98in /  1015.1hPa NE 4.0mph /  6.4km/h 4.0mph /  6.4km/h 77% 0.00in /  0mm 276.0 W/m2
10:40 63.1 °F /  17.3 °C 55.0 °F /  12.8 °C 29.98in /  1015.1hPa North 4.9mph /  7.9km/h 7.0mph /  11.3km/h 75% 0.00in /  0mm 292.0 W/m2
10:45 63.3 °F /  17.4 °C 55.6 °F /  13.1 °C 29.97in /  1014.8hPa NNW 2.0mph /  3.2km/h 5.0mph /  8km/h 76% 0.00in /  0mm 306.0 W/m2
10:50 63.7 °F /  17.6 °C 55.6 °F /  13.1 °C 29.98in /  1015.1hPa NNW 0.9mph /  1.4km/h 4.0mph /  6.4km/h 75% 0.00in /  0mm 287.0 W/m2
10:55 63.9 °F /  17.7 °C 55.8 °F /  13.2 °C 29.98in /  1015.1hPa NE 4.0mph /  6.4km/h 4.0mph /  6.4km/h 75% 0.00in /  0mm 272.0 W/m2
11:01 64.0 °F /  17.8 °C 55.6 °F /  13.1 °C 29.97in /  1014.8hPa NNE 2.9mph /  4.7km/h 5.0mph /  8km/h 74% 0.00in /  0mm 283.0 W/m2
11:06 64.2 °F /  17.9 °C 55.8 °F /  13.2 °C 29.97in /  1014.8hPa ENE 2.0mph /  3.2km/h 5.0mph /  8km/h 74% 0.00in /  0mm 302.0 W/m2
11:11 64.6 °F /  18.1 °C 56.1 °F /  13.4 °C 29.97in /  1014.8hPa NNW 0.9mph /  1.4km/h 4.0mph /  6.4km/h 74% 0.00in /  0mm 327.0 W/m2
11:17 64.8 °F /  18.2 °C 56.3 °F /  13.5 °C 29.97in /  1014.8hPa NNE 6.0mph /  9.7km/h 7.0mph /  11.3km/h 74% 0.00in /  0mm 336.0 W/m2
11:22 64.9 °F /  18.3 °C 56.1 °F /  13.4 °C 29.97in /  1014.8hPa Calm   4.0mph /  6.4km/h 73% 0.00in /  0mm 338.0 W/m2
11:27 65.1 °F /  18.4 °C 56.3 °F /  13.5 °C 29.97in /  1014.8hPa North 2.0mph /  3.2km/h 4.0mph /  6.4km/h 73% 0.00in /  0mm 346.0 W/m2
11:32 65.5 °F /  18.6 °C 55.0 °F /  12.8 °C 29.97in /  1014.8hPa North 2.0mph /  3.2km/h 4.0mph /  6.4km/h 69% 0.00in /  0mm 362.0 W/m2
11:37 65.8 °F /  18.8 °C 56.1 °F /  13.4 °C 29.96in /  1014.4hPa NNW 2.9mph /  4.7km/h 3.0mph /  4.8km/h 71% 0.00in /  0mm 429.0 W/m2
11:43 66.4 °F /  19.1 °C 56.7 °F /  13.7 °C 29.96in /  1014.4hPa Calm   3.0mph /  4.8km/h 71% 0.00in /  0mm 584.0 W/m2
11:48 66.9 °F /  19.4 °C 56.8 °F /  13.8 °C 29.95in /  1014.1hPa Calm   5.0mph /  8km/h 70% 0.00in /  0mm 675.0 W/m2
11:53 67.6 °F /  19.8 °C 56.3 °F /  13.5 °C 29.95in /  1014.1hPa WNW 2.9mph /  4.7km/h 9.0mph /  14.5km/h 67% 0.00in /  0mm 766.0 W/m2
11:59 69.1 °F /  20.6 °C 56.5 °F /  13.6 °C 29.95in /  1014.1hPa NNW 4.0mph /  6.4km/h 6.0mph /  9.7km/h 64% 0.00in /  0mm 909.0 W/m2
12:04 70.0 °F /  21.1 °C 56.3 °F /  13.5 °C 29.95in /  1014.1hPa NNW 0.9mph /  1.4km/h 2.0mph /  3.2km/h 62% 0.00in /  0mm 1297.0 W/m2
12:09 70.5 °F /  21.4 °C 56.8 °F /  13.8 °C 29.95in /  1014.1hPa North 2.9mph /  4.7km/h 4.0mph /  6.4km/h 62% 0.00in /  0mm 1215.0 W/m2
12:15 71.8 °F /  22.1 °C 57.2 °F /  14 °C 29.94in /  1013.8hPa West 0.9mph /  1.4km/h 3.0mph /  4.8km/h 60% 0.00in /  0mm 1181.0 W/m2
12:20 72.5 °F /  22.5 °C 55.9 °F /  13.3 °C 29.94in /  1013.8hPa WSW 2.9mph /  4.7km/h 7.0mph /  11.3km/h 56% 0.00in /  0mm 1176.0 W/m2
12:25 73.2 °F /  22.9 °C 55.6 °F /  13.1 °C 29.94in /  1013.8hPa West 2.0mph /  3.2km/h 5.0mph /  8km/h 54% 0.00in /  0mm 1144.0 W/m2
12:31 74.1 °F /  23.4 °C 55.4 °F /  13 °C 29.93in /  1013.4hPa NW 2.9mph /  4.7km/h 6.0mph /  9.7km/h 52% 0.00in /  0mm 1376.0 W/m2
12:36 74.3 °F /  23.5 °C 55.0 °F /  12.8 °C 29.93in /  1013.4hPa Calm   10.0mph /  16.1km/h 51% 0.00in /  0mm 524.0 W/m2
12:41 73.9 °F /  23.3 °C 54.7 °F /  12.6 °C 29.93in /  1013.4hPa NW 2.9mph /  4.7km/h 7.0mph /  11.3km/h 51% 0.00in /  0mm 494.0 W/m2
12:47 73.6 °F /  23.1 °C 54.9 °F /  12.7 °C 29.93in /  1013.4hPa North 2.9mph /  4.7km/h 9.0mph /  14.5km/h 52% 0.00in /  0mm 559.0 W/m2
12:53 73.9 °F /  23.3 °C 54.7 °F /  12.6 °C 29.93in /  1013.4hPa NNE 4.0mph /  6.4km/h 8.0mph /  12.9km/h 51% 0.00in /  0mm 522.0 W/m2
12:58 74.5 °F /  23.6 °C 56.3 °F /  13.5 °C 29.93in /  1013.4hPa North 8.9mph /  14.3km/h 9.0mph /  14.5km/h 53% 0.00in /  0mm 1455.0 W/m2
13:03 75.4 °F /  24.1 °C 55.9 °F /  13.3 °C 29.93in /  1013.4hPa West 4.9mph /  7.9km/h 8.0mph /  12.9km/h 51% 0.00in /  0mm 886.0 W/m2
13:08 75.7 °F /  24.3 °C 55.2 °F /  12.9 °C 29.93in /  1013.4hPa Calm   6.0mph /  9.7km/h 49% 0.00in /  0mm 886.0 W/m2
13:13 75.9 °F /  24.4 °C 55.9 °F /  13.3 °C 29.93in /  1013.4hPa West 2.0mph /  3.2km/h 7.0mph /  11.3km/h 50% 0.00in /  0mm 837.0 W/m2
13:19 75.7 °F /  24.3 °C 55.8 °F /  13.2 °C 29.93in /  1013.4hPa NNW 4.9mph /  7.9km/h 5.0mph /  8km/h 50% 0.00in /  0mm 636.0 W/m2
13:24 75.7 °F /  24.3 °C 54.7 °F /  12.6 °C 29.93in /  1013.4hPa WNW 4.9mph /  7.9km/h 11.0mph /  17.7km/h 48% 0.00in /  0mm 455.0 W/m2
13:29 75.6 °F /  24.2 °C 55.0 °F /  12.8 °C 29.93in /  1013.4hPa West 2.9mph /  4.7km/h 9.0mph /  14.5km/h 49% 0.00in /  0mm 483.0 W/m2
13:35 75.2 °F /  24 °C 55.2 °F /  12.9 °C 29.93in /  1013.4hPa NNW 4.9mph /  7.9km/h 7.0mph /  11.3km/h 50% 0.00in /  0mm 555.0 W/m2
13:40 75.6 °F /  24.2 °C 56.1 °F /  13.4 °C 29.92in /  1013.1hPa NNW 4.0mph /  6.4km/h 10.0mph /  16.1km/h 51% 0.00in /  0mm 1148.0 W/m2
13:45 76.3 °F /  24.6 °C 56.3 °F /  13.5 °C 29.92in /  1013.1hPa North 11.0mph /  17.7km/h 13.0mph /  20.9km/h 50% 0.00in /  0mm 1290.0 W/m2
13:51 76.3 °F /  24.6 °C 56.3 °F /  13.5 °C 29.93in /  1013.4hPa NNW 10.1mph /  16.3km/h 12.0mph /  19.3km/h 50% 0.00in /  0mm 513.0 W/m2
13:57 75.4 °F /  24.1 °C 55.9 °F /  13.3 °C 29.93in /  1013.4hPa NW 6.0mph /  9.7km/h 9.0mph /  14.5km/h 51% 0.00in /  0mm 529.0 W/m2
14:02 75.0 °F /  23.9 °C 55.6 °F /  13.1 °C 29.93in /  1013.4hPa NNW 6.0mph /  9.7km/h 12.0mph /  19.3km/h 51% 0.00in /  0mm 619.0 W/m2
14:07 75.0 °F /  23.9 °C 56.1 °F /  13.4 °C 29.93in /  1013.4hPa NNW 2.9mph /  4.7km/h 5.0mph /  8km/h 52% 0.00in /  0mm 800.0 W/m2
14:12 75.6 °F /  24.2 °C 56.7 °F /  13.7 °C 29.92in /  1013.1hPa North 6.0mph /  9.7km/h 10.0mph /  16.1km/h 52% 0.00in /  0mm 1153.0 W/m2
14:17 76.3 °F /  24.6 °C 56.8 °F /  13.8 °C 29.92in /  1013.1hPa North 2.9mph /  4.7km/h 8.0mph /  12.9km/h 51% 0.00in /  0mm 664.0 W/m2
14:23 76.3 °F /  24.6 °C 56.3 °F /  13.5 °C 29.92in /  1013.1hPa NNE 4.9mph /  7.9km/h 9.0mph /  14.5km/h 50% 0.00in /  0mm 515.0 W/m2
14:28 75.6 °F /  24.2 °C 55.6 °F /  13.1 °C 29.92in /  1013.1hPa North 6.0mph /  9.7km/h 12.0mph /  19.3km/h 50% 0.00in /  0mm 512.0 W/m2
14:33 74.5 °F /  23.6 °C 55.8 °F /  13.2 °C 29.92in /  1013.1hPa NNW 6.0mph /  9.7km/h 12.0mph /  19.3km/h 52% 0.00in /  0mm 434.0 W/m2
14:39 73.6 °F /  23.1 °C 55.9 °F /  13.3 °C 29.92in /  1013.1hPa NNW 6.0mph /  9.7km/h 10.0mph /  16.1km/h 54% 0.00in /  0mm 404.0 W/m2
14:44 73.0 °F /  22.8 °C 55.4 °F /  13 °C 29.92in /  1013.1hPa NNW 6.0mph /  9.7km/h 8.0mph /  12.9km/h 54% 0.00in /  0mm 455.0 W/m2
14:49 73.0 °F /  22.8 °C 55.9 °F /  13.3 °C 29.92in /  1013.1hPa WSW 4.0mph /  6.4km/h 8.0mph /  12.9km/h 55% 0.00in /  0mm 1220.0 W/m2
14:55 74.5 °F /  23.6 °C 56.7 °F /  13.7 °C 29.92in /  1013.1hPa North 4.0mph /  6.4km/h 7.0mph /  11.3km/h 54% 0.00in /  0mm 889.0 W/m2
15:00 75.4 °F /  24.1 °C 55.9 °F /  13.3 °C 29.92in /  1013.1hPa NNW 6.0mph /  9.7km/h 10.0mph /  16.1km/h 51% 0.00in /  0mm 997.0 W/m2
15:05 75.4 °F /  24.1 °C 56.5 °F /  13.6 °C 29.91in /  1012.8hPa NNW 8.9mph /  14.3km/h 10.0mph /  16.1km/h 52% 0.00in /  0mm 947.0 W/m2
15:11 75.6 °F /  24.2 °C 56.1 °F /  13.4 °C 29.91in /  1012.8hPa NNE 8.9mph /  14.3km/h 10.0mph /  16.1km/h 51% 0.00in /  0mm 935.0 W/m2
15:16 75.9 °F /  24.4 °C 55.9 °F /  13.3 °C 29.91in /  1012.8hPa NNW 2.9mph /  4.7km/h 7.0mph /  11.3km/h 50% 0.00in /  0mm 315.0 W/m2
15:21 75.4 °F /  24.1 °C 55.9 °F /  13.3 °C 29.91in /  1012.8hPa NNW 4.0mph /  6.4km/h 8.0mph /  12.9km/h 51% 0.00in /  0mm 297.0 W/m2
15:27 74.5 °F /  23.6 °C 55.8 °F /  13.2 °C 29.90in /  1012.4hPa WNW 4.9mph /  7.9km/h 9.0mph /  14.5km/h 52% 0.00in /  0mm 308.0 W/m2
15:32 74.1 °F /  23.4 °C 55.9 °F /  13.3 °C 29.90in /  1012.4hPa NNW 2.0mph /  3.2km/h 4.0mph /  6.4km/h 53% 0.00in /  0mm 504.0 W/m2
15:37 74.3 °F /  23.5 °C 56.1 °F /  13.4 °C 29.90in /  1012.4hPa NNE 6.9mph /  11.1km/h 8.0mph /  12.9km/h 53% 0.00in /  0mm 510.0 W/m2
15:43 74.7 °F /  23.7 °C 56.5 °F /  13.6 °C 29.89in /  1012.1hPa North 2.9mph /  4.7km/h 12.0mph /  19.3km/h 53% 0.00in /  0mm 531.0 W/m2
15:48 75.0 °F /  23.9 °C 55.6 °F /  13.1 °C 29.89in /  1012.1hPa North 6.0mph /  9.7km/h 10.0mph /  16.1km/h 51% 0.00in /  0mm 478.0 W/m2
15:53 74.7 °F /  23.7 °C 55.9 °F /  13.3 °C 29.89in /  1012.1hPa North 10.1mph /  16.3km/h 10.1mph /  16.3km/h 52% 0.00in /  0mm 503.0 W/m2
15:59 74.3 °F /  23.5 °C 55.6 °F /  13.1 °C 29.88in /  1011.7hPa NNE 6.0mph /  9.7km/h 12.0mph /  19.3km/h 52% 0.00in /  0mm 258.0 W/m2
16:05 74.1 °F /  23.4 °C 55.9 °F /  13.3 °C 29.88in /  1011.7hPa North 4.0mph /  6.4km/h 8.0mph /  12.9km/h 53% 0.00in /  0mm 640.0 W/m2
16:10 74.5 °F /  23.6 °C 55.8 °F /  13.2 °C 29.88in /  1011.7hPa NW 4.9mph /  7.9km/h 11.0mph /  17.7km/h 52% 0.00in /  0mm 624.0 W/m2
16:11 74.7 °F /  23.7 °C 55.9 °F /  13.3 °C 29.88in /  1011.7hPa NNW 6.0mph /  9.7km/h 10.0mph /  16.1km/h 52% 0.00in /  0mm 624.0 W/m2
16:16 74.5 °F /  23.6 °C 55.2 °F /  12.9 °C 29.87in /  1011.4hPa NNW 8.1mph /  13km/h 11.0mph /  17.7km/h 51% 0.00in /  0mm 603.0 W/m2
16:21 74.5 °F /  23.6 °C 53.4 °F /  11.9 °C 29.87in /  1011.4hPa NW 4.9mph /  7.9km/h 13.0mph /  20.9km/h 48% 0.00in /  0mm 578.0 W/m2
16:27 74.7 °F /  23.7 °C 53.1 °F /  11.7 °C 29.87in /  1011.4hPa NNW 4.0mph /  6.4km/h 13.0mph /  20.9km/h 47% 0.00in /  0mm 554.0 W/m2
16:32 74.7 °F /  23.7 °C 53.6 °F /  12 °C 29.87in /  1011.4hPa NNW 4.0mph /  6.4km/h 12.0mph /  19.3km/h 48% 0.00in /  0mm 538.0 W/m2
16:38 74.8 °F /  23.8 °C 52.7 °F /  11.5 °C 29.86in /  1011.1hPa NNE 6.0mph /  9.7km/h 12.0mph /  19.3km/h 46% 0.00in /  0mm 517.0 W/m2
16:43 74.7 °F /  23.7 °C 53.1 °F /  11.7 °C 29.86in /  1011.1hPa NW 6.9mph /  11.1km/h 9.0mph /  14.5km/h 47% 0.00in /  0mm 492.0 W/m2
16:48 74.7 °F /  23.7 °C 53.1 °F /  11.7 °C 29.86in /  1011.1hPa NNW 8.1mph /  13km/h 14.0mph /  22.5km/h 47% 0.00in /  0mm 482.0 W/m2
16:53 74.7 °F /  23.7 °C 53.6 °F /  12 °C 29.86in /  1011.1hPa North 8.9mph /  14.3km/h 9.0mph /  14.5km/h 48% 0.00in /  0mm 325.0 W/m2
16:58 74.5 °F /  23.6 °C 52.9 °F /  11.6 °C 29.86in /  1011.1hPa WNW 2.0mph /  3.2km/h 13.0mph /  20.9km/h 47% 0.00in /  0mm 221.0 W/m2
17:04 74.5 °F /  23.6 °C 53.4 °F /  11.9 °C 29.86in /  1011.1hPa NNE 2.9mph /  4.7km/h 9.0mph /  14.5km/h 48% 0.00in /  0mm 529.0 W/m2
17:09 74.7 °F /  23.7 °C 53.1 °F /  11.7 °C 29.87in /  1011.4hPa WNW 2.0mph /  3.2km/h 8.0mph /  12.9km/h 47% 0.00in /  0mm 483.0 W/m2
17:14 74.7 °F /  23.7 °C 53.6 °F /  12 °C 29.87in /  1011.4hPa West 4.9mph /  7.9km/h 7.0mph /  11.3km/h 48% 0.00in /  0mm 190.0 W/m2
17:19 74.3 °F /  23.5 °C 53.4 °F /  11.9 °C 29.86in /  1011.1hPa NNW 2.0mph /  3.2km/h 7.0mph /  11.3km/h 48% 0.00in /  0mm 283.0 W/m2
17:24 73.9 °F /  23.3 °C 53.1 °F /  11.7 °C 29.87in /  1011.4hPa NNW 4.9mph /  7.9km/h 7.0mph /  11.3km/h 48% 0.00in /  0mm 185.0 W/m2
17:29 73.8 °F /  23.2 °C 52.9 °F /  11.6 °C 29.87in /  1011.4hPa NNW 4.0mph /  6.4km/h 8.0mph /  12.9km/h 48% 0.00in /  0mm 165.0 W/m2
17:34 73.6 °F /  23.1 °C 53.2 °F /  11.8 °C 29.87in /  1011.4hPa WSW 2.0mph /  3.2km/h 4.0mph /  6.4km/h 49% 0.00in /  0mm 200.0 W/m2
17:39 73.6 °F /  23.1 °C 53.8 °F /  12.1 °C 29.88in /  1011.7hPa WNW 0.9mph /  1.4km/h 3.0mph /  4.8km/h 50% 0.00in /  0mm 163.0 W/m2
17:44 73.6 °F /  23.1 °C 53.2 °F /  11.8 °C 29.88in /  1011.7hPa WNW 0.9mph /  1.4km/h 7.0mph /  11.3km/h 49% 0.00in /  0mm 120.0 W/m2
17:50 73.2 °F /  22.9 °C 53.4 °F /  11.9 °C 29.88in /  1011.7hPa NNW 0.9mph /  1.4km/h 2.0mph /  3.2km/h 50% 0.00in /  0mm 95.0 W/m2
17:55 73.0 °F /  22.8 °C 53.2 °F /  11.8 °C 29.88in /  1011.7hPa North 4.0mph /  6.4km/h 4.0mph /  6.4km/h 50% 0.00in /  0mm 86.0 W/m2
18:00 72.7 °F /  22.6 °C 54.0 °F /  12.2 °C 29.88in /  1011.7hPa Calm   5.0mph /  8km/h 52% 0.00in /  0mm 77.0 W/m2
18:06 72.3 °F /  22.4 °C 53.8 °F /  12.1 °C 29.88in /  1011.7hPa NNW 2.0mph /  3.2km/h 4.0mph /  6.4km/h 52% 0.00in /  0mm 58.0 W/m2
18:11 72.1 °F /  22.3 °C 53.6 °F /  12 °C 29.88in /  1011.7hPa Calm   5.0mph /  8km/h 52% 0.00in /  0mm 42.0 W/m2
18:16 72.0 °F /  22.2 °C 54.0 °F /  12.2 °C 29.89in /  1012.1hPa NNE 2.9mph /  4.7km/h 7.0mph /  11.3km/h 53% 0.00in /  0mm 35.0 W/m2
18:21 71.8 °F /  22.1 °C 54.3 °F /  12.4 °C 29.90in /  1012.4hPa NNW 4.0mph /  6.4km/h 6.0mph /  9.7km/h 54% 0.00in /  0mm 33.0 W/m2
18:26 71.4 °F /  21.9 °C 54.0 °F /  12.2 °C 29.90in /  1012.4hPa Calm   3.0mph /  4.8km/h 54% 0.00in /  0mm 30.0 W/m2
18:31 71.2 °F /  21.8 °C 53.8 °F /  12.1 °C 29.90in /  1012.4hPa WSW 0.9mph /  1.4km/h 4.0mph /  6.4km/h 54% 0.00in /  0mm 25.0 W/m2
18:37 71.2 °F /  21.8 °C 54.3 °F /  12.4 °C 29.90in /  1012.4hPa NW 2.0mph /  3.2km/h 5.0mph /  8km/h 55% 0.00in /  0mm 19.0 W/m2
18:42 71.1 °F /  21.7 °C 54.5 °F /  12.5 °C 29.90in /  1012.4hPa Calm   5.0mph /  8km/h 56% 0.00in /  0mm 19.0 W/m2
18:47 70.9 °F /  21.6 °C 54.9 °F /  12.7 °C 29.90in /  1012.4hPa WNW 0.9mph /  1.4km/h 2.0mph /  3.2km/h 57% 0.00in /  0mm 19.0 W/m2
18:52 70.5 °F /  21.4 °C 54.1 °F /  12.3 °C 29.90in /  1012.4hPa NW 2.0mph /  3.2km/h 3.0mph /  4.8km/h 56% 0.00in /  0mm 19.0 W/m2
18:57 70.3 °F /  21.3 °C 54.0 °F /  12.2 °C 29.90in /  1012.4hPa Calm   3.0mph /  4.8km/h 56% 0.00in /  0mm 11.0 W/m2
19:02 70.2 °F /  21.2 °C 53.8 °F /  12.1 °C 29.90in /  1012.4hPa Calm   3.0mph /  4.8km/h 56% 0.00in /  0mm 5.0 W/m2
19:07 70.0 °F /  21.1 °C 54.0 °F /  12.2 °C 29.90in /  1012.4hPa Calm   1.0mph /  1.6km/h 57% 0.00in /  0mm 0.0 W/m2
19:12 69.8 °F /  21 °C 54.0 °F /  12.2 °C 29.90in /  1012.4hPa Calm   1.0mph /  1.6km/h 57% 0.00in /  0mm 0.0 W/m2
19:17 69.6 °F /  20.9 °C 54.1 °F /  12.3 °C 29.90in /  1012.4hPa NNW 4.0mph /  6.4km/h 5.0mph /  8km/h 58% 0.00in /  0mm 0.0 W/m2
19:23 69.3 °F /  20.7 °C 54.3 °F /  12.4 °C 29.90in /  1012.4hPa West 4.9mph /  7.9km/h 8.0mph /  12.9km/h 59% 0.00in /  0mm 0.0 W/m2
19:28 69.1 °F /  20.6 °C 54.1 °F /  12.3 °C 29.90in /  1012.4hPa Calm   4.0mph /  6.4km/h 59% 0.00in /  0mm 0.0 W/m2
19:33 68.9 °F /  20.5 °C 54.0 °F /  12.2 °C 29.90in /  1012.4hPa WNW 2.9mph /  4.7km/h 5.0mph /  8km/h 59% 0.00in /  0mm 0.0 W/m2
19:38 68.5 °F /  20.3 °C 53.6 °F /  12 °C 29.90in /  1012.4hPa NW 2.9mph /  4.7km/h 5.0mph /  8km/h 59% 0.00in /  0mm 0.0 W/m2
19:43 68.4 °F /  20.2 °C 54.0 °F /  12.2 °C 29.90in /  1012.4hPa NNW 4.0mph /  6.4km/h 5.0mph /  8km/h 60% 0.00in /  0mm 0.0 W/m2
19:48 68.4 °F /  20.2 °C 54.0 °F /  12.2 °C 29.90in /  1012.4hPa NW 2.9mph /  4.7km/h 3.0mph /  4.8km/h 60% 0.00in /  0mm 0.0 W/m2
19:53 68.2 °F /  20.1 °C 54.1 °F /  12.3 °C 29.91in /  1012.8hPa North 0.9mph /  1.4km/h 4.0mph /  6.4km/h 61% 0.00in /  0mm 0.0 W/m2
19:58 68.0 °F /  20 °C 54.5 °F /  12.5 °C 29.91in /  1012.8hPa NNW 0.9mph /  1.4km/h 5.0mph /  8km/h 62% 0.00in /  0mm 0.0 W/m2
20:04 67.8 °F /  19.9 °C 54.3 °F /  12.4 °C 29.91in /  1012.8hPa North 2.0mph /  3.2km/h 3.0mph /  4.8km/h 62% 0.00in /  0mm 0.0 W/m2
20:09 67.6 °F /  19.8 °C 54.1 °F /  12.3 °C 29.91in /  1012.8hPa Calm   2.0mph /  3.2km/h 62% 0.00in /  0mm 0.0 W/m2
20:14 67.5 °F /  19.7 °C 54.5 °F /  12.5 °C 29.90in /  1012.4hPa Calm   1.0mph /  1.6km/h 63% 0.00in /  0mm 0.0 W/m2
20:19 67.5 °F /  19.7 °C 54.5 °F /  12.5 °C 29.91in /  1012.8hPa Calm   2.0mph /  3.2km/h 63% 0.00in /  0mm 0.0 W/m2
20:24 67.3 °F /  19.6 °C 54.7 °F /  12.6 °C 29.91in /  1012.8hPa Calm     64% 0.00in /  0mm 0.0 W/m2
20:29 67.1 °F /  19.5 °C 54.9 °F /  12.7 °C 29.91in /  1012.8hPa Calm     65% 0.00in /  0mm 0.0 W/m2
20:34 66.9 °F /  19.4 °C 54.9 °F /  12.7 °C 29.91in /  1012.8hPa Calm   2.0mph /  3.2km/h 65% 0.00in /  0mm 0.0 W/m2
20:39 66.7 °F /  19.3 °C 54.7 °F /  12.6 °C 29.91in /  1012.8hPa Calm     65% 0.00in /  0mm 0.0 W/m2
20:44 66.6 °F /  19.2 °C 54.9 °F /  12.7 °C 29.91in /  1012.8hPa Calm     66% 0.00in /  0mm 0.0 W/m2
20:49 66.4 °F /  19.1 °C 54.7 °F /  12.6 °C 29.91in /  1012.8hPa Calm     66% 0.00in /  0mm 0.0 W/m2
20:55 66.4 °F /  19.1 °C 55.0 °F /  12.8 °C 29.91in /  1012.8hPa Calm     67% 0.00in /  0mm 0.0 W/m2
21:00 66.0 °F /  18.9 °C 54.7 °F /  12.6 °C 29.91in /  1012.8hPa Calm     67% 0.00in /  0mm 0.0 W/m2
21:05 65.8 °F /  18.8 °C 54.5 °F /  12.5 °C 29.91in /  1012.8hPa Calm     67% 0.00in /  0mm 0.0 W/m2
21:10 65.7 °F /  18.7 °C 55.2 °F /  12.9 °C 29.91in /  1012.8hPa Calm     69% 0.00in /  0mm 0.0 W/m2
21:15 65.5 °F /  18.6 °C 55.4 °F /  13 °C 29.91in /  1012.8hPa Calm     70% 0.00in /  0mm 0.0 W/m2
21:20 65.1 °F /  18.4 °C 55.0 °F /  12.8 °C 29.91in /  1012.8hPa Calm     70% 0.00in /  0mm 0.0 W/m2
21:25 64.9 °F /  18.3 °C 55.4 °F /  13 °C 29.92in /  1013.1hPa Calm     71% 0.00in /  0mm 0.0 W/m2
21:30 64.8 °F /  18.2 °C 55.2 °F /  12.9 °C 29.91in /  1012.8hPa Calm     71% 0.00in /  0mm 0.0 W/m2
21:38 64.8 °F /  18.2 °C 55.6 °F /  13.1 °C 29.91in /  1012.8hPa Calm     72% 0.00in /  0mm 0.0 W/m2
21:43 64.6 °F /  18.1 °C 55.8 °F /  13.2 °C 29.92in /  1013.1hPa Calm     73% 0.00in /  0mm 0.0 W/m2
21:48 64.4 °F /  18 °C 55.9 °F /  13.3 °C 29.92in /  1013.1hPa Calm     74% 0.00in /  0mm 0.0 W/m2
21:53 64.2 °F /  17.9 °C 55.8 °F /  13.2 °C 29.92in /  1013.1hPa Calm   1.0mph /  1.6km/h 74% 0.00in /  0mm 0.0 W/m2
21:58 64.2 °F /  17.9 °C 55.8 °F /  13.2 °C 29.92in /  1013.1hPa Calm   1.0mph /  1.6km/h 74% 0.00in /  0mm 0.0 W/m2
22:03 64.2 °F /  17.9 °C 55.8 °F /  13.2 °C 29.92in /  1013.1hPa Calm   1.0mph /  1.6km/h 74% 0.00in /  0mm 0.0 W/m2
22:08 64.0 °F /  17.8 °C 55.9 °F /  13.3 °C 29.92in /  1013.1hPa Calm   1.0mph /  1.6km/h 75% 0.00in /  0mm 0.0 W/m2
22:13 64.0 °F /  17.8 °C 55.9 °F /  13.3 °C 29.92in /  1013.1hPa Calm     75% 0.00in /  0mm 0.0 W/m2
22:18 64.0 °F /  17.8 °C 55.9 °F /  13.3 °C 29.93in /  1013.4hPa Calm     75% 0.00in /  0mm 0.0 W/m2
22:24 63.9 °F /  17.7 °C 56.1 °F /  13.4 °C 29.93in /  1013.4hPa Calm     76% 0.00in /  0mm 0.0 W/m2
22:29 63.9 °F /  17.7 °C 56.1 °F /  13.4 °C 29.93in /  1013.4hPa Calm     76% 0.00in /  0mm 0.0 W/m2
22:34 63.7 °F /  17.6 °C 55.9 °F /  13.3 °C 29.92in /  1013.1hPa Calm     76% 0.00in /  0mm 0.0 W/m2
22:39 63.5 °F /  17.5 °C 55.8 °F /  13.2 °C 29.93in /  1013.4hPa Calm     76% 0.00in /  0mm 0.0 W/m2
22:44 63.3 °F /  17.4 °C 55.6 °F /  13.1 °C 29.92in /  1013.1hPa Calm     76% 0.00in /  0mm 0.0 W/m2
22:49 63.3 °F /  17.4 °C 55.9 °F /  13.3 °C 29.92in /  1013.1hPa Calm     77% 0.00in /  0mm 0.0 W/m2
22:54 63.1 °F /  17.3 °C 55.8 °F /  13.2 °C 29.92in /  1013.1hPa Calm     77% 0.00in /  0mm 0.0 W/m2
22:59 63.1 °F /  17.3 °C 56.1 °F /  13.4 °C 29.92in /  1013.1hPa Calm     78% 0.00in /  0mm 0.0 W/m2
23:05 63.0 °F /  17.2 °C 55.9 °F /  13.3 °C 29.92in /  1013.1hPa Calm     78% 0.00in /  0mm 0.0 W/m2
23:11 63.0 °F /  17.2 °C 55.9 °F /  13.3 °C 29.91in /  1012.8hPa Calm     78% 0.00in /  0mm 0.0 W/m2
23:16 62.8 °F /  17.1 °C 55.8 °F /  13.2 °C 29.91in /  1012.8hPa Calm     78% 0.00in /  0mm 0.0 W/m2
23:22 62.8 °F /  17.1 °C 55.8 °F /  13.2 °C 29.91in /  1012.8hPa Calm     78% 0.00in /  0mm 0.0 W/m2
23:27 62.6 °F /  17 °C 55.6 °F /  13.1 °C 29.91in /  1012.8hPa Calm   1.0mph /  1.6km/h 78% 0.00in /  0mm 0.0 W/m2
23:32 62.4 °F /  16.9 °C 55.4 °F /  13 °C 29.91in /  1012.8hPa Calm     78% 0.00in /  0mm 0.0 W/m2
23:37 62.4 °F /  16.9 °C 55.8 °F /  13.2 °C 29.91in /  1012.8hPa Calm   1.0mph /  1.6km/h 79% 0.00in /  0mm 0.0 W/m2
23:42 62.2 °F /  16.8 °C 55.6 °F /  13.1 °C 29.91in /  1012.8hPa Calm   1.0mph /  1.6km/h 79% 0.00in /  0mm 0.0 W/m2
23:47 62.1 °F /  16.7 °C 55.8 °F /  13.2 °C 29.91in /  1012.8hPa Calm   1.0mph /  1.6km/h 80% 0.00in /  0mm 0.0 W/m2
23:52 62.1 °F /  16.7 °C 55.8 °F /  13.2 °C 29.91in /  1012.8hPa ENE 0.9mph /  1.4km/h 2.0mph /  3.2km/h 80% 0.00in /  0mm 0.0 W/m2
23:58 61.9 °F /  16.6 °C 55.6 °F /  13.1 °C 29.91in /  1012.8hPa Calm   1.0mph /  1.6km/h 80% 0.00in /  0mm 0.0 W/m2
Olympia, Windhoek, Namibia
Compliments of Weather Underground - 3.25 mb